Time;durP1;ratioP1;P1;durP2;ratioP2;P2;SDS_P1;SDS_P2;PMS_P1;PMS_P2;Temp;Humidity;BMP_temperature;BMP_pressure;BME280_temperature;BME280_humidity;BME280_pressure;Samples;Min_cycle;Max_cycle;Signal;HPM_P1;HPM_P2
2021/10/24 00:01:09;;;;;;;2.92;1.00;;;;;;;7.33;100.00;99342.34;5020495;28;20084;-69
2021/10/24 00:04:00;;;;;;;2.40;1.17;;;;;;;7.37;100.00;99338.78;5014363;28;20129;-66
2021/10/24 00:06:45;;;;;;;3.30;1.40;;;;;;;7.38;100.00;99340.50;5021791;28;20425;-64
2021/10/24 00:09:29;;;;;;;2.10;1.30;;;;;;;7.60;100.00;99338.44;5015513;28;20064;-63
2021/10/24 00:12:14;;;;;;;1.92;1.25;;;;;;;7.58;100.00;99338.44;5026092;28;20045;-62
2021/10/24 00:15:01;;;;;;;4.10;1.35;;;;;;;7.42;100.00;99341.31;5029045;28;20056;-60
2021/10/24 00:17:47;;;;;;;4.03;1.55;;;;;;;7.12;100.00;99341.75;5013451;28;20055;-59
2021/10/24 00:20:34;;;;;;;4.45;1.70;;;;;;;7.23;100.00;99342.47;5028343;28;20052;-63
2021/10/24 00:23:18;;;;;;;1.83;1.48;;;;;;;7.21;100.00;99344.25;5027345;28;20520;-59
2021/10/24 00:26:02;;;;;;;4.63;1.80;;;;;;;7.29;100.00;99339.75;5024722;28;20103;-66
2021/10/24 00:28:47;;;;;;;5.63;1.48;;;;;;;7.32;100.00;99351.13;5028644;28;20044;-60
2021/10/24 00:31:32;;;;;;;2.95;1.80;;;;;;;7.26;100.00;99339.78;5025468;28;20053;-64
2021/10/24 00:34:16;;;;;;;3.20;1.70;;;;;;;7.27;100.00;99347.69;5026602;28;20048;-63
2021/10/24 00:37:02;;;;;;;3.40;1.85;;;;;;;7.22;100.00;99348.63;5029524;28;20398;-61
2021/10/24 00:39:47;;;;;;;3.15;1.70;;;;;;;7.33;100.00;99352.88;5025769;28;20571;-62
2021/10/24 00:42:32;;;;;;;3.22;1.80;;;;;;;7.33;100.00;99350.25;5025407;28;20185;-63
2021/10/24 00:45:17;;;;;;;;;;;;;;;7.34;100.00;99351.09;5022462;28;20111;-64
2021/10/24 00:48:02;;;;;;;3.40;1.70;;;;;;;7.32;100.00;99356.41;5013126;28;19924;-61
2021/10/24 00:50:48;;;;;;;3.85;1.48;;;;;;;6.98;100.00;99356.88;5025198;28;20053;-61
2021/10/24 00:53:33;;;;;;;3.80;1.70;;;;;;;7.09;100.00;99353.22;5027529;28;20049;-65
2021/10/24 00:56:17;;;;;;;2.75;1.75;;;;;;;7.19;100.00;99359.22;5033022;28;20503;-63
2021/10/24 00:59:02;;;;;;;2.70;1.60;;;;;;;7.05;100.00;99356.78;5013931;28;20524;-61
2021/10/24 01:01:47;;;;;;;5.38;1.50;;;;;;;7.18;100.00;99360.13;5012336;28;20064;-62
2021/10/24 01:04:33;;;;;;;3.30;1.60;;;;;;;7.11;100.00;99369.00;4997620;28;20137;-64
2021/10/24 01:07:19;;;;;;;3.83;1.75;;;;;;;7.22;100.00;99349.53;5027895;28;20056;-61
2021/10/24 01:10:05;;;;;;;4.40;1.50;;;;;;;7.51;100.00;99365.81;5025307;28;20245;-61
2021/10/24 01:12:51;;;;;;;4.90;1.60;;;;;;;7.73;100.00;99353.16;5012265;28;20056;-63
2021/10/24 01:15:36;;;;;;;4.47;1.77;;;;;;;7.66;100.00;99356.78;5025849;28;20472;-61
2021/10/24 01:18:21;;;;;;;6.72;1.42;;;;;;;7.52;100.00;99356.13;5025410;28;20048;-62
2021/10/24 01:21:07;;;;;;;4.25;1.65;;;;;;;7.70;100.00;99355.84;5026921;28;20052;-63
2021/10/24 01:23:52;;;;;;;5.03;1.80;;;;;;;7.65;100.00;99361.22;5023265;28;20067;-62
2021/10/24 01:26:38;;;;;;;4.28;1.80;;;;;;;7.75;100.00;99362.81;5026598;28;20098;-61
2021/10/24 01:29:24;;;;;;;4.70;1.77;;;;;;;7.55;100.00;99353.44;5031645;28;20231;-62
2021/10/24 01:32:08;;;;;;;5.15;2.00;;;;;;;7.44;100.00;99353.59;5025320;28;20103;-61
2021/10/24 01:34:53;;;;;;;2.85;1.40;;;;;;;7.64;100.00;99358.59;5029406;28;20056;-62
2021/10/24 01:37:44;;;;;;;3.42;1.50;;;;;;;7.92;100.00;99373.09;5010131;28;20507;-64
2021/10/24 01:40:28;;;;;;;4.15;1.77;;;;;;;7.56;100.00;99358.69;5023394;28;20520;-62
2021/10/24 01:43:12;;;;;;;4.50;2.08;;;;;;;7.38;100.00;99366.00;5024345;28;20076;-63
2021/10/24 01:45:57;;;;;;;5.97;2.10;;;;;;;7.30;100.00;99368.75;5023115;28;20136;-62
2021/10/24 01:48:43;;;;;;;2.83;2.03;;;;;;;7.49;100.00;99364.97;5025225;28;20055;-62
2021/10/24 01:51:30;;;;;;;5.22;2.10;;;;;;;7.22;100.00;99360.06;5008241;28;20150;-64
2021/10/24 01:54:14;;;;;;;4.90;2.20;;;;;;;7.29;100.00;99372.28;5010981;28;20107;-62
2021/10/24 01:56:59;;;;;;;5.93;1.98;;;;;;;7.29;100.00;99372.28;5024591;28;20071;-61
2021/10/24 01:59:45;;;;;;;4.15;1.70;;;;;;;7.50;100.00;99371.09;5011950;28;20119;-62
2021/10/24 02:02:48;;;;;;;4.40;2.13;;;;;;;7.41;100.00;99379.16;5026793;28;20053;-62
2021/10/24 02:05:52;;;;;;;4.63;1.73;;;;;;;7.32;100.00;99381.91;5015026;28;20088;-62
2021/10/24 02:08:37;;;;;;;6.78;2.17;;;;;;;7.26;100.00;99371.44;5003668;28;20085;-65
2021/10/24 02:11:21;;;;;;;3.53;1.70;;;;;;;7.29;100.00;99374.03;5012403;28;20063;-62
2021/10/24 02:14:09;;;;;;;2.90;1.67;;;;;;;7.38;100.00;99381.81;5008738;28;20052;-61
2021/10/24 02:17:02;;;;;;;5.37;1.70;;;;;;;7.52;100.00;99379.88;5016469;28;20048;-60
2021/10/24 02:19:46;;;;;;;2.85;1.67;;;;;;;7.62;100.00;99377.09;4991526;28;20449;-61
2021/10/24 02:22:32;;;;;;;4.07;1.73;;;;;;;7.40;100.00;99377.41;5016727;28;20106;-63
2021/10/24 02:25:20;;;;;;;4.05;1.95;;;;;;;7.28;100.00;99375.78;5010493;28;20501;-61
2021/10/24 02:28:08;;;;;;;5.30;2.10;;;;;;;7.33;100.00;99368.72;4991124;28;20157;-62
2021/10/24 02:30:52;;;;;;;2.65;1.98;;;;;;;7.47;100.00;99387.84;5022104;28;20416;-62
2021/10/24 02:33:56;;;;;;;4.00;1.88;;;;;;;7.49;100.00;99391.34;5025961;28;20114;-63
2021/10/24 02:36:53;;;;;;;4.80;2.10;;;;;;;7.49;100.00;99380.78;5024882;28;20458;-61
2021/10/24 02:39:37;;;;;;;;;;;;;;;7.61;100.00;99383.25;5009433;28;20099;-66
2021/10/24 02:42:22;;;;;;;3.72;1.90;;;;;;;7.55;100.00;99380.69;5028226;28;19924;-63
2021/10/24 02:45:08;;;;;;;4.97;1.90;;;;;;;7.40;100.00;99383.53;5007677;28;20055;-61
2021/10/24 02:47:53;;;;;;;2.95;1.75;;;;;;;7.49;100.00;99382.56;5027344;28;20868;-61
2021/10/24 02:50:39;;;;;;;5.50;2.00;;;;;;;7.31;100.00;99385.41;5028612;28;20082;-61
2021/10/24 02:53:24;;;;;;;2.50;1.55;;;;;;;7.42;100.00;99380.88;5014113;28;20096;-60
2021/10/24 02:56:09;;;;;;;3.05;1.88;;;;;;;7.37;100.00;99380.97;5042007;28;20095;-61
2021/10/24 02:58:54;;;;;;;3.78;1.80;;;;;;;7.36;100.00;99391.53;5013516;28;20047;-63
2021/10/24 03:01:40;;;;;;;5.10;1.70;;;;;;;7.32;100.00;99384.56;5022518;28;20136;-61
2021/10/24 03:04:25;;;;;;;3.28;1.55;;;;;;;7.40;100.00;99390.59;5028097;28;20048;-60
2021/10/24 03:07:10;;;;;;;4.35;1.67;;;;;;;7.26;100.00;99382.88;5028797;28;20528;-60
2021/10/24 03:09:55;;;;;;;6.28;1.98;;;;;;;7.35;100.00;99389.75;5028253;28;20111;-61
2021/10/24 03:12:40;;;;;;;3.75;1.70;;;;;;;7.42;100.00;99378.25;5025979;28;20059;-59
2021/10/24 03:15:25;;;;;;;3.05;1.70;;;;;;;7.48;100.00;99378.19;5027847;28;20075;-63
2021/10/24 03:18:10;;;;;;;3.05;1.50;;;;;;;7.74;100.00;99376.91;5027080;28;20582;-62
2021/10/24 03:20:55;;;;;;;2.45;1.67;;;;;;;7.78;100.00;99378.59;4998825;28;20068;-61
2021/10/24 03:23:41;;;;;;;4.07;1.77;;;;;;;7.82;100.00;99369.75;5029277;28;20103;-62
2021/10/24 03:26:25;;;;;;;3.83;1.70;;;;;;;7.81;100.00;99367.13;5014351;28;20602;-63
2021/10/24 03:29:11;;;;;;;3.55;1.70;;;;;;;7.73;100.00;99377.81;5014546;28;20048;-61
2021/10/24 03:31:56;;;;;;;4.97;2.03;;;;;;;7.64;100.00;99383.19;5026543;28;20531;-60
2021/10/24 03:34:40;;;;;;;4.70;2.00;;;;;;;7.62;100.00;99386.75;5027321;28;20052;-61
2021/10/24 03:37:25;;;;;;;5.38;2.08;;;;;;;7.70;100.00;99390.16;5024055;28;20056;-62
2021/10/24 03:40:10;;;;;;;5.78;2.08;;;;;;;7.66;100.00;99381.41;5032154;28;20060;-64
2021/10/24 03:42:55;;;;;;;;;;;;;;;7.52;100.00;99391.28;5027299;28;20064;-61
2021/10/24 03:45:40;;;;;;;5.85;2.40;;;;;;;7.30;100.00;99395.13;5028879;28;19943;-61
2021/10/24 03:48:26;;;;;;;4.25;2.47;;;;;;;7.21;100.00;99389.97;5026245;28;20276;-64
2021/10/24 03:51:10;;;;;;;4.65;2.78;;;;;;;7.15;100.00;99391.78;5027160;28;20122;-62
2021/10/24 03:53:55;;;;;;;5.47;2.47;;;;;;;7.17;100.00;99390.00;5010918;28;20606;-62
2021/10/24 03:56:41;;;;;;;4.80;2.10;;;;;;;7.04;100.00;99389.28;5042167;28;20099;-65
2021/10/24 03:59:25;;;;;;;5.68;2.53;;;;;;;7.09;100.00;99395.41;5046394;28;20183;-61
2021/10/24 04:02:11;;;;;;;7.88;2.42;;;;;;;6.90;100.00;99391.22;5012040;28;20068;-63
2021/10/24 04:04:55;;;;;;;4.70;2.40;;;;;;;6.92;100.00;99399.97;5013389;28;20098;-63
2021/10/24 04:07:39;;;;;;;3.35;1.90;;;;;;;6.80;100.00;99386.94;5027112;28;20064;-62
2021/10/24 04:10:26;;;;;;;5.15;2.25;;;;;;;6.82;100.00;99397.47;5027192;28;20123;-62
2021/10/24 04:13:11;;;;;;;5.07;1.90;;;;;;;6.84;100.00;99393.91;5027859;28;20048;-61
2021/10/24 04:15:57;;;;;;;6.13;2.08;;;;;;;6.81;100.00;99407.13;5024213;28;20053;-60
2021/10/24 04:19:14;;;;;;;2.78;1.20;;;;;;;6.83;100.00;99401.84;4965528;28;20097;-62
2021/10/24 04:22:03;;;;;;;1.92;1.20;;;;;;;6.89;100.00;99405.28;4953282;28;20154;-62
2021/10/24 04:24:49;;;;;;;2.00;1.17;;;;;;;6.85;100.00;99406.19;4968621;28;20081;-63
2021/10/24 04:27:33;;;;;;;2.40;1.40;;;;;;;6.88;100.00;99408.81;4972734;28;20124;-65
2021/10/24 04:30:18;;;;;;;2.72;1.00;;;;;;;6.76;100.00;99400.19;4967267;28;20103;-60
2021/10/24 04:33:03;;;;;;;1.38;0.80;;;;;;;6.67;100.00;99406.41;4942372;28;20045;-61
2021/10/24 04:35:53;;;;;;;1.02;0.82;;;;;;;6.50;100.00;99423.25;4951793;28;20097;-61
2021/10/24 04:38:38;;;;;;;1.40;0.68;;;;;;;6.44;100.00;99423.34;4951598;28;20672;-63
2021/10/24 04:41:22;;;;;;;0.70;0.52;;;;;;;6.35;100.00;99429.53;4951511;28;20414;-62
2021/10/24 04:44:08;;;;;;;1.23;0.52;;;;;;;6.28;100.00;99432.22;4966451;28;20058;-63
2021/10/24 04:46:54;;;;;;;1.48;0.57;;;;;;;6.45;100.00;99433.81;4963990;28;20133;-67
2021/10/24 04:49:38;;;;;;;1.42;0.60;;;;;;;6.45;100.00;99438.25;4965414;28;20561;-62
2021/10/24 04:52:23;;;;;;;0.82;0.50;;;;;;;6.41;100.00;99439.16;4949939;28;20214;-64
2021/10/24 04:55:08;;;;;;;1.10;0.73;;;;;;;6.37;100.00;99443.56;4999983;28;20056;-63
2021/10/24 04:57:53;;;;;;;1.50;0.80;;;;;;;6.36;100.00;99447.06;5039782;28;20091;-62
2021/10/24 05:00:38;;;;;;;1.67;0.90;;;;;;;6.23;100.00;99447.19;5011748;28;20048;-60
2021/10/24 05:03:23;;;;;;;1.92;1.05;;;;;;;6.32;100.00;99452.38;5019407;28;20137;-62
2021/10/24 05:06:08;;;;;;;1.85;0.70;;;;;;;6.31;100.00;99461.16;5025036;28;20620;-63
2021/10/24 05:08:56;;;;;;;1.58;1.10;;;;;;;6.28;100.00;99454.16;5015928;28;20110;-61
2021/10/24 05:11:41;;;;;;;1.25;0.90;;;;;;;6.25;100.00;99464.72;5025133;28;20487;-61
2021/10/24 05:14:25;;;;;;;2.05;0.80;;;;;;;6.25;100.00;99472.59;5022347;28;20059;-64
2021/10/24 05:17:10;;;;;;;1.10;0.80;;;;;;;6.28;100.00;99479.59;5025614;28;20865;-61
2021/10/24 05:19:54;;;;;;;2.22;0.90;;;;;;;6.22;100.00;99477.91;5018221;28;20236;-62
2021/10/24 05:22:40;;;;;;;0.77;0.70;;;;;;;6.17;100.00;99482.31;5025348;28;20183;-61
2021/10/24 05:25:26;;;;;;;0.90;0.90;;;;;;;6.20;100.00;99482.31;5030008;28;20068;-63
2021/10/24 05:28:10;;;;;;;0.88;0.82;;;;;;;6.33;100.00;99488.38;5007648;28;20061;-61
2021/10/24 05:30:56;;;;;;;1.90;0.93;;;;;;;6.42;100.00;99489.19;5005955;28;20520;-63
2021/10/24 05:33:41;;;;;;;1.60;1.08;;;;;;;6.41;100.00;99492.66;5011820;28;20092;-64
2021/10/24 05:36:48;;;;;;;1.67;0.73;;;;;;;6.48;100.00;99490.88;5014250;28;20091;-61
2021/10/24 05:39:34;;;;;;;1.70;0.60;;;;;;;6.44;100.00;99494.44;5027338;28;20056;-61
2021/10/24 05:42:28;;;;;;;4.50;0.70;;;;;;;6.49;100.00;99500.53;5022043;28;20137;-67
2021/10/24 05:45:13;;;;;;;1.00;0.70;;;;;;;6.51;100.00;99498.75;5005889;28;20523;-64
2021/10/24 05:47:59;;;;;;;1.95;0.60;;;;;;;6.43;100.00;99497.94;5015246;28;20095;-62
2021/10/24 05:51:02;;;;;;;0.75;0.40;;;;;;;6.53;100.00;99497.84;4999429;28;20132;-67
2021/10/24 05:53:47;;;;;;;2.08;0.57;;;;;;;6.64;100.00;99503.03;5025375;28;20488;-62
2021/10/24 05:56:40;;;;;;;1.58;0.60;;;;;;;6.73;100.00;99513.50;5024867;28;20583;-62
2021/10/24 05:59:29;;;;;;;1.45;0.40;;;;;;;6.80;100.00;99509.91;5023340;28;20049;-62
2021/10/24 06:02:21;;;;;;;2.45;0.73;;;;;;;6.66;100.00;99525.84;5024060;28;20060;-63
2021/10/24 06:05:34;;;;;;;0.80;0.50;;;;;;;6.71;100.00;99523.16;4982735;28;20529;-63
2021/10/24 06:08:23;;;;;;;0.75;0.40;;;;;;;6.82;100.00;99531.84;4966757;28;20065;-63
2021/10/24 06:11:26;;;;;;;1.13;0.77;;;;;;;6.70;100.00;99537.22;4960969;28;20410;-63
2021/10/24 06:14:11;;;;;;;0.80;0.50;;;;;;;6.68;100.00;99539.88;4965567;28;20084;-62
2021/10/24 06:16:59;;;;;;;2.53;0.90;;;;;;;6.68;100.00;99557.44;4979367;28;20049;-63
2021/10/24 06:19:44;;;;;;;1.75;0.85;;;;;;;6.70;100.00;99546.00;4965552;28;20533;-63
2021/10/24 06:22:29;;;;;;;1.98;0.60;;;;;;;6.74;100.00;99536.31;4966638;28;20109;-66
2021/10/24 06:25:16;;;;;;;1.02;0.60;;;;;;;6.81;100.00;99554.66;4976322;28;20092;-70
2021/10/24 06:28:04;;;;;;;2.72;0.90;;;;;;;6.86;100.00;99563.44;4922268;28;20186;-64
2021/10/24 06:30:49;;;;;;;1.77;0.80;;;;;;;6.86;100.00;99562.53;4959259;28;20116;-62
2021/10/24 06:33:33;;;;;;;5.15;0.95;;;;;;;6.83;100.00;99566.09;4975595;28;20100;-67
2021/10/24 06:36:36;;;;;;;2.05;0.80;;;;;;;6.82;100.00;99559.09;4974482;28;20065;-64
2021/10/24 06:39:47;;;;;;;3.15;1.05;;;;;;;6.93;100.00;99567.75;4978752;28;20121;-63
2021/10/24 06:42:32;;;;;;;2.65;0.90;;;;;;;6.84;100.00;99580.16;4995830;28;20103;-63
2021/10/24 06:45:44;;;;;;;2.28;0.93;;;;;;;6.93;100.00;99561.63;5022561;28;20056;-67
2021/10/24 06:49:00;;;;;;;1.92;0.90;;;;;;;7.01;100.00;99576.44;4922938;29;20139;-64
2021/10/24 06:52:03;;;;;;;2.53;0.90;;;;;;;7.14;100.00;99588.66;4911414;29;20051;-68
2021/10/24 06:55:09;;;;;;;2.55;0.60;;;;;;;7.04;100.00;99576.44;4940156;29;20087;-68
2021/10/24 06:58:20;;;;;;;2.65;0.80;;;;;;;7.11;100.00;99586.03;4899921;29;20107;-66
2021/10/24 07:01:23;;;;;;;1.73;0.90;;;;;;;7.13;100.00;99581.66;4861236;29;20070;-64
2021/10/24 07:04:26;;;;;;;1.25;0.70;;;;;;;7.30;100.00;99599.91;4890634;29;20161;-63
2021/10/24 07:07:28;;;;;;;1.13;0.50;;;;;;;7.27;100.00;99592.03;4891147;29;20192;-63
2021/10/24 07:10:20;;;;;;;1.08;0.63;;;;;;;7.20;100.00;99604.41;4900632;29;20088;-62
2021/10/24 07:13:05;;;;;;;1.08;0.50;;;;;;;7.34;100.00;99601.63;4888724;29;20413;-66
2021/10/24 07:15:50;;;;;;;0.60;0.40;;;;;;;7.44;100.00;99600.66;4887176;29;20148;-63
2021/10/24 07:18:34;;;;;;;2.50;0.55;;;;;;;7.34;100.00;99599.00;4894981;29;20055;-63
2021/10/24 07:21:19;;;;;;;2.65;0.70;;;;;;;7.45;100.00;99607.69;4887393;29;20056;-63
2021/10/24 07:24:04;;;;;;;1.75;0.60;;;;;;;7.42;100.00;99610.34;4905069;29;20119;-68
2021/10/24 07:26:55;;;;;;;0.88;0.40;;;;;;;7.56;100.00;99611.09;4939549;28;20499;-65
2021/10/24 07:29:40;;;;;;;1.08;0.98;;;;;;;7.44;100.00;99616.50;4938168;29;20054;-62
2021/10/24 07:32:25;;;;;;;1.05;0.63;;;;;;;7.33;100.00;99611.34;4939188;28;20050;-68
2021/10/24 07:35:18;;;;;;;2.38;0.50;;;;;;;7.26;100.00;99599.09;4980732;28;20044;-63
2021/10/24 07:38:05;;;;;;;;;;;;;;;7.31;100.00;99623.66;5005918;28;20136;-64
2021/10/24 07:40:57;;;;;;;1.65;0.60;;;;;;;7.44;100.00;99633.19;4995278;28;19978;-65
2021/10/24 07:43:46;;;;;;;0.80;0.65;;;;;;;7.50;100.00;99630.50;5023385;28;20184;-66
2021/10/24 07:46:33;;;;;;;3.50;0.82;;;;;;;7.60;100.00;99632.13;5033634;28;20060;-65
2021/10/24 07:49:18;;;;;;;1.20;0.73;;;;;;;7.45;100.00;99634.94;5028317;28;20088;-64
2021/10/24 07:52:04;;;;;;;1.58;0.82;;;;;;;7.59;100.00;99637.44;5028606;28;20084;-64
2021/10/24 07:54:50;;;;;;;3.58;0.98;;;;;;;7.59;100.00;99651.50;5009934;28;20510;-62
2021/10/24 07:57:36;;;;;;;2.13;1.17;;;;;;;7.61;100.00;99646.22;5021130;28;20088;-66
2021/10/24 08:00:20;;;;;;;2.22;0.73;;;;;;;7.70;100.00;99644.34;5006623;28;20099;-72
2021/10/24 08:03:08;;;;;;;2.88;1.05;;;;;;;7.74;100.00;99653.09;5011873;28;20119;-72
2021/10/24 08:05:55;;;;;;;3.92;1.10;;;;;;;7.55;100.00;99657.69;5009162;28;20056;-64
2021/10/24 08:08:42;;;;;;;1.48;0.63;;;;;;;7.49;100.00;99656.88;5010639;28;20056;-64
2021/10/24 08:11:28;;;;;;;1.02;0.70;;;;;;;7.37;100.00;99652.63;5013158;28;20571;-63
2021/10/24 08:14:13;;;;;;;3.72;1.92;;;;;;;7.47;100.00;99664.81;5024665;28;20544;-64
2021/10/24 08:16:57;;;;;;;1.70;0.88;;;;;;;7.42;100.00;99652.56;4992316;28;20056;-65
2021/10/24 08:19:44;;;;;;;1.88;0.90;;;;;;;7.50;100.00;99656.00;5010470;28;20053;-64
2021/10/24 08:22:32;;;;;;;2.85;1.00;;;;;;;7.53;100.00;99662.13;5009819;28;20406;-63
2021/10/24 08:25:17;;;;;;;4.75;1.65;;;;;;;7.51;100.00;99663.00;5008725;28;20525;-64
2021/10/24 08:28:05;;;;;;;4.65;1.75;;;;;;;7.41;100.00;99675.44;5028935;28;20052;-64
2021/10/24 08:31:15;;;;;;;2.42;1.00;;;;;;;7.44;100.00;99664.84;4954430;28;20530;-66
2021/10/24 08:34:03;;;;;;;4.85;1.30;;;;;;;7.51;100.00;99673.56;4945887;29;20082;-65
2021/10/24 08:36:49;;;;;;;2.38;1.10;;;;;;;7.34;100.00;99673.72;4928428;29;20063;-66
2021/10/24 08:39:36;;;;;;;1.90;0.90;;;;;;;7.38;100.00;99671.94;4943314;28;20050;-66
2021/10/24 08:42:27;;;;;;;8.40;2.20;;;;;;;7.31;100.00;99691.31;4944123;28;20598;-65
2021/10/24 08:45:14;;;;;;;3.00;1.05;;;;;;;7.35;100.00;99686.03;4929073;28;20116;-64
2021/10/24 08:47:58;;;;;;;1.10;0.50;;;;;;;7.35;100.00;99698.31;4930349;29;20082;-67
2021/10/24 08:50:45;;;;;;;1.05;0.80;;;;;;;7.42;100.00;99705.31;4941409;28;20159;-65
2021/10/24 08:53:30;;;;;;;1.35;0.63;;;;;;;7.59;100.00;99690.19;4945539;28;20499;-62
2021/10/24 08:56:21;;;;;;;1.00;0.77;;;;;;;7.78;100.00;99708.50;4942313;29;20094;-64
2021/10/24 08:59:06;;;;;;;1.77;0.82;;;;;;;8.08;100.00;99697.59;4942754;29;20050;-68
2021/10/24 09:01:54;;;;;;;1.40;0.70;;;;;;;8.01;100.00;99711.78;4944437;28;21069;-69
2021/10/24 09:04:54;;;;;;;0.95;0.70;;;;;;;7.98;100.00;99717.09;4943499;29;20467;-66
2021/10/24 09:07:41;;;;;;;1.40;0.43;;;;;;;7.54;100.00;99724.56;4970959;28;20144;-64
2021/10/24 09:10:51;;;;;;;1.40;0.55;;;;;;;7.54;100.00;99713.09;5019795;28;20438;-64
2021/10/24 09:13:36;;;;;;;1.98;0.68;;;;;;;7.26;100.00;99720.38;5019904;28;20044;-66
2021/10/24 09:16:23;;;;;;;0.90;0.60;;;;;;;7.60;100.00;99724.47;5017080;28;20064;-68
2021/10/24 09:19:15;;;;;;;1.35;0.82;;;;;;;8.05;100.00;99744.28;4994033;28;20065;-67
2021/10/24 09:22:23;;;;;;;2.72;0.70;;;;;;;7.99;100.00;99744.38;5023233;28;20053;-65
2021/10/24 09:25:12;;;;;;;2.75;0.80;;;;;;;7.88;100.00;99752.38;5021299;28;20069;-68
2021/10/24 09:28:00;;;;;;;1.13;0.73;;;;;;;7.69;100.00;99755.19;5019801;28;20065;-67
2021/10/24 09:30:46;;;;;;;3.78;1.00;;;;;;;7.61;100.00;99747.38;5016933;28;20076;-69
2021/10/24 09:33:43;;;;;;;1.50;0.80;;;;;;;7.67;100.00;99743.78;5013393;28;20060;-66
2021/10/24 09:36:29;;;;;;;2.05;0.80;;;;;;;7.67;100.00;99764.88;5001088;28;20422;-69
2021/10/24 09:39:53;;;;;;;1.88;0.93;;;;;;;7.57;100.00;99760.59;5010009;28;20154;-70
2021/10/24 09:42:39;;;;;;;1.27;0.60;;;;;;;7.48;100.00;99750.97;5024752;28;20460;-69
2021/10/24 09:45:24;;;;;;;1.20;0.60;;;;;;;7.06;100.00;99748.66;5001172;28;20049;-66
2021/10/24 09:48:12;;;;;;;1.35;0.95;;;;;;;6.90;100.00;99768.09;5016950;28;20641;-69
2021/10/24 09:51:07;;;;;;;1.45;0.60;;;;;;;6.73;100.00;99775.19;5021717;28;20528;-68
2021/10/24 09:53:56;;;;;;;1.65;0.50;;;;;;;6.89;100.00;99805.84;5007891;28;20103;-69
2021/10/24 09:56:41;;;;;;;0.90;0.70;;;;;;;6.78;100.00;99797.13;5021817;28;20056;-70
2021/10/24 09:59:29;;;;;;;3.60;1.05;;;;;;;6.98;100.00;99800.56;5007720;28;20188;-70
2021/10/24 10:02:15;;;;;;;2.15;1.00;;;;;;;7.18;100.00;99790.78;5009320;28;20298;-67
2021/10/24 10:05:02;;;;;;;1.50;0.75;;;;;;;7.22;100.00;99825.88;4992893;28;20138;-65
2021/10/24 10:07:47;;;;;;;0.85;0.60;;;;;;;7.20;100.00;99825.03;5014314;28;20577;-64
2021/10/24 10:10:36;;;;;;;0.90;0.63;;;;;;;6.90;100.00;99825.19;5005918;28;20132;-67
2021/10/24 10:13:27;;;;;;;1.02;0.55;;;;;;;7.04;100.00;99832.13;5023786;28;20079;-67
2021/10/24 10:16:15;;;;;;;1.00;0.50;;;;;;;6.95;100.00;99836.56;5006258;28;20127;-69
2021/10/24 10:19:02;;;;;;;2.33;0.40;;;;;;;6.70;100.00;99827.03;5021080;28;20098;-69
2021/10/24 10:21:50;;;;;;;0.50;0.30;;;;;;;6.49;100.00;99853.44;5016980;28;20536;-67
2021/10/24 10:24:37;;;;;;;0.38;0.30;;;;;;;6.24;100.00;99839.44;5007359;28;20040;-69
2021/10/24 10:27:38;;;;;;;1.77;0.50;;;;;;;6.11;100.00;99840.34;5018542;28;20464;-70
2021/10/24 10:30:33;;;;;;;2.75;0.70;;;;;;;5.97;100.00;99854.41;5003619;28;20137;-66
2021/10/24 10:33:32;;;;;;;2.65;0.70;;;;;;;6.02;100.00;99845.63;5000977;28;20057;-67
2021/10/24 10:36:20;;;;;;;3.58;0.70;;;;;;;6.14;100.00;99865.78;5010215;28;20064;-68
2021/10/24 10:39:33;;;;;;;1.90;1.20;;;;;;;6.27;100.00;99875.41;5005797;28;20127;-69
2021/10/24 10:42:28;;;;;;;1.58;0.90;;;;;;;6.15;100.00;99864.91;5022964;28;20099;-69
2021/10/24 10:45:16;;;;;;;1.63;0.97;;;;;;;6.19;100.00;99877.19;5005840;28;20039;-73
2021/10/24 10:48:19;;;;;;;1.48;0.90;;;;;;;6.29;100.00;99887.69;5015248;28;20048;-67
2021/10/24 10:51:23;;;;;;;1.25;0.90;;;;;;;6.44;100.00;99892.94;5017693;28;20056;-65
2021/10/24 10:54:09;;;;;;;3.22;1.00;;;;;;;6.38;100.00;99878.91;5001130;28;20088;-68
2021/10/24 10:56:56;;;;;;;1.95;1.17;;;;;;;6.52;100.00;99903.50;5002365;28;20056;-68
2021/10/24 10:59:43;;;;;;;3.92;1.38;;;;;;;6.61;100.00;99906.94;5017519;28;20057;-70
2021/10/24 11:02:34;;;;;;;2.53;1.10;;;;;;;6.71;100.00;99908.69;4992990;28;20500;-70
2021/10/24 11:05:40;;;;;;;3.67;1.17;;;;;;;6.84;100.00;99920.97;5006315;28;20052;-71
2021/10/24 11:08:50;;;;;;;1.50;0.75;;;;;;;6.70;100.00;99917.50;5011506;28;20464;-68
2021/10/24 11:11:41;;;;;;;3.38;0.88;;;;;;;6.76;100.00;99913.97;5014518;28;20052;-73
2021/10/24 11:14:35;;;;;;;2.08;0.93;;;;;;;6.50;100.00;99915.78;5015499;28;20103;-69
2021/10/24 11:17:34;;;;;;;1.17;0.60;;;;;;;6.56;100.00;99914.00;5026606;28;20056;-64
2021/10/24 11:20:45;;;;;;;1.85;0.80;;;;;;;6.42;100.00;99934.22;5017748;28;20055;-68
2021/10/24 11:23:34;;;;;;;1.05;0.80;;;;;;;6.30;100.00;99947.41;4969974;28;20049;-69
2021/10/24 11:26:18;;;;;;;1.42;1.00;;;;;;;6.18;100.00;99949.16;5004716;28;20068;-67
2021/10/24 11:29:05;;;;;;;1.63;1.00;;;;;;;6.29;100.00;99965.84;5021683;28;20494;-64
2021/10/24 11:32:23;;;;;;;3.35;1.10;;;;;;;6.56;100.00;99973.72;5019146;28;20067;-65
2021/10/24 11:35:08;;;;;;;1.17;0.73;;;;;;;6.42;100.00;99964.94;5021300;28;20045;-69
2021/10/24 11:38:04;;;;;;;1.10;0.63;;;;;;;6.51;100.00;99970.19;5024981;28;20072;-64
2021/10/24 11:40:51;;;;;;;0.80;0.68;;;;;;;6.31;100.00;99962.31;5004019;28;20092;-65
2021/10/24 11:43:35;;;;;;;1.52;0.73;;;;;;;6.48;100.00;99976.34;5018846;28;20536;-63
2021/10/24 11:46:20;;;;;;;2.30;0.88;;;;;;;6.66;100.00;99968.44;5003732;28;20056;-67
2021/10/24 11:49:06;;;;;;;1.85;1.05;;;;;;;6.68;100.00;99968.44;5005324;28;20075;-63
2021/10/24 11:51:54;;;;;;;2.72;1.25;;;;;;;6.52;100.00;99982.50;5019977;28;20520;-64
2021/10/24 11:55:03;;;;;;;1.45;0.90;;;;;;;6.60;100.00;99986.00;5015199;28;20563;-67
2021/10/24 12:01:12;;;;;;;1.25;0.80;;;;;;;6.30;100.00;100021.13;4926768;29;20086;-68
2021/10/24 12:04:03;;;;;;;0.95;0.73;;;;;;;5.89;100.00;100024.56;4943250;29;20050;-61
2021/10/24 12:07:00;;;;;;;0.70;0.50;;;;;;;5.65;100.00;100020.06;4926822;29;20595;-70
2021/10/24 12:09:46;;;;;;;2.85;0.65;;;;;;;5.53;100.00;100045.44;4912455;29;20694;-65
2021/10/24 12:12:36;;;;;;;1.20;0.60;;;;;;;5.74;100.00;100046.38;4913631;29;20523;-66
2021/10/24 12:15:38;;;;;;;1.25;0.80;;;;;;;5.62;100.00;100048.97;4936035;29;20102;-64
2021/10/24 12:18:27;;;;;;;1.80;0.85;;;;;;;5.46;100.00;100067.31;4926548;29;20063;-65
2021/10/24 12:21:12;;;;;;;1.70;0.65;;;;;;;5.48;100.00;100076.06;4903520;29;20054;-63
2021/10/24 12:24:14;;;;;;;1.67;0.85;;;;;;;5.42;100.00;100034.84;4928454;29;20066;-65
2021/10/24 12:27:07;;;;;;;1.38;0.70;;;;;;;5.50;100.00;100059.44;4931204;29;20059;-65
2021/10/24 12:30:03;;;;;;;1.58;0.65;;;;;;;5.51;100.00;100057.69;4927344;29;20055;-68
2021/10/24 12:33:01;;;;;;;1.10;0.68;;;;;;;5.31;100.00;100077.75;4927911;29;20078;-67
2021/10/24 12:35:49;;;;;;;4.05;1.50;;;;;;;5.40;100.00;100093.56;4928361;29;20049;-65
2021/10/24 12:38:51;;;;;;;1.30;0.60;;;;;;;5.51;100.00;100087.50;4975629;28;20722;-62
2021/10/24 12:41:38;;;;;;;0.57;0.50;;;;;;;5.53;100.00;100105.94;5023477;28;20052;-64
2021/10/24 12:44:24;;;;;;;1.25;0.60;;;;;;;5.40;100.00;100078.69;5009815;28;20064;-65
2021/10/24 12:47:15;;;;;;;1.02;0.60;;;;;;;5.51;100.00;100110.28;5016754;28;20052;-66
2021/10/24 12:50:02;;;;;;;1.45;0.50;;;;;;;5.44;100.00;100112.00;5008256;28;20057;-62
2021/10/24 12:53:11;;;;;;;1.23;0.60;;;;;;;5.50;100.00;100113.78;5020867;28;20134;-64
2021/10/24 12:56:02;;;;;;;1.42;0.70;;;;;;;5.48;100.00;100118.16;5005758;28;20132;-65
2021/10/24 12:58:47;;;;;;;1.33;0.73;;;;;;;5.37;100.00;100125.13;5004547;28;20051;-66
2021/10/24 13:01:33;;;;;;;;;;;;;;;5.37;100.00;100139.13;5022523;28;20516;-67
2021/10/24 13:04:18;;;;;;;;;;;;;;;5.49;100.00;100127.81;5012430;28;19975;-66
2021/10/24 13:07:04;;;;;;;1.50;0.80;;;;;;;5.29;100.00;100146.09;5008197;28;20452;-66
2021/10/24 13:09:49;;;;;;;1.73;0.85;;;;;;;5.14;100.00;100140.72;5016117;28;20456;-65
2021/10/24 13:12:33;;;;;;;1.52;0.90;;;;;;;5.18;100.00;100158.25;5021660;28;20107;-66
2021/10/24 13:15:18;;;;;;;1.63;0.80;;;;;;;4.96;100.00;100159.84;5016577;28;20052;-64
2021/10/24 13:18:02;;;;;;;1.10;0.55;;;;;;;5.00;100.00;100180.00;5018172;28;20061;-63
2021/10/24 13:20:56;;;;;;;1.23;0.70;;;;;;;5.09;100.00;100184.47;5019265;28;20064;-64